createdAt,value
2023-02-24T00:02:04.196Z,52438.09
2023-02-24T00:04:39.808Z,52480.84
2023-02-24T00:07:10.874Z,52466.59
2023-02-24T00:09:38.307Z,52468.63
2023-02-24T00:12:08.982Z,52448.28
2023-02-24T00:14:37.974Z,52484.91
2023-02-24T00:17:08.149Z,52482.88
2023-02-24T00:19:34.859Z,52486.94
2023-02-24T00:22:03.167Z,52429.97
2023-02-24T00:24:30.525Z,52464.56
2023-02-24T00:26:59.555Z,52446.25
2023-02-24T00:29:27.277Z,52474.72
2023-02-24T00:31:56.828Z,52470.66
2023-02-24T00:34:23.920Z,52450.31
2023-02-24T00:36:50.369Z,52470.66
2023-02-24T00:39:16.881Z,52484.91
2023-02-24T00:41:44.622Z,52474.72
2023-02-24T00:44:14.222Z,52472.69
2023-02-24T00:46:44.683Z,52468.63
2023-02-24T00:49:20.789Z,52493.03
2023-02-24T00:51:49.230Z,52472.69
2023-02-24T00:54:17.503Z,52466.59
2023-02-24T00:56:45.864Z,52486.94
2023-02-24T00:59:14.742Z,52493.03
2023-02-24T01:01:42.824Z,52511.34
2023-02-24T01:04:12.434Z,52511.34
2023-02-24T01:06:45.100Z,52486.94
2023-02-24T01:09:15.320Z,52505.25
2023-02-24T01:12:03.055Z,52505.25
2023-02-24T01:14:31.849Z,52448.28
2023-02-24T01:16:59.051Z,52438.09
2023-02-24T01:19:31.604Z,52468.63
2023-02-24T01:21:58.964Z,52472.69
2023-02-24T01:24:25.988Z,52493.03
2023-02-24T01:26:52.632Z,52497.13
2023-02-24T01:29:19.246Z,52513.41
2023-02-24T01:31:48.658Z,52533.75
2023-02-24T01:34:17.191Z,52533.75
2023-02-24T01:36:44.360Z,52507.28
2023-02-24T01:39:13.557Z,52529.66
2023-02-24T01:41:43.853Z,52482.88
2023-02-24T01:44:22.351Z,52501.19
2023-02-24T01:46:52.316Z,52503.22
2023-02-24T01:49:29.821Z,52497.13
2023-02-24T01:52:04.013Z,52499.16
2023-02-24T01:54:35.736Z,52482.88
2023-02-24T01:57:05.795Z,52515.44
2023-02-24T01:59:35.579Z,52488.97
2023-02-24T02:02:05.400Z,52484.91
2023-02-24T02:04:39.641Z,52495.06
2023-02-24T02:07:10.027Z,52503.22
2023-02-24T02:09:38.682Z,52511.34
2023-02-24T02:12:05.352Z,52543.91
2023-02-24T02:14:32.378Z,52507.28
2023-02-24T02:17:07.905Z,52495.06
2023-02-24T02:20:15.823Z,52513.41
2023-02-24T02:23:00.816Z,52493.03
2023-02-24T02:25:55.613Z,52501.19
2023-02-24T02:28:31.594Z,52517.47
2023-02-24T02:31:37.731Z,52507.28
2023-02-24T02:34:07.326Z,52509.31
2023-02-24T02:37:05.898Z,52499.16
2023-02-24T02:39:47.644Z,52488.97
2023-02-24T02:42:33.266Z,52517.47
2023-02-24T02:45:06.425Z,52515.44
2023-02-24T02:47:41.388Z,52472.69
2023-02-24T02:50:13.169Z,52488.97
2023-02-24T02:53:00.608Z,52493.03
2023-02-24T02:55:48.520Z,52515.44
2023-02-24T02:58:23.720Z,52525.59
2023-02-24T03:01:02.714Z,52478.81
2023-02-24T03:03:34.009Z,52527.63
2023-02-24T03:06:06.580Z,52525.59
2023-02-24T03:08:37.336Z,52523.56
2023-02-24T03:11:06.213Z,52511.34
2023-02-24T03:13:37.868Z,52527.63
2023-02-24T03:16:06.554Z,52493.03
2023-02-24T03:18:38.422Z,52543.91
2023-02-24T03:21:29.006Z,52533.75
2023-02-24T03:23:55.878Z,52521.53
2023-02-24T03:26:30.024Z,52545.94
2023-02-24T03:29:18.257Z,52525.59
2023-02-24T03:31:54.231Z,52533.75
2023-02-24T03:34:42.803Z,52576.47
2023-02-24T03:37:09.522Z,52543.91
2023-02-24T03:39:36.642Z,52552.06
2023-02-24T03:42:03.066Z,52547.97
2023-02-24T03:44:29.708Z,52541.88
2023-02-24T03:46:56.350Z,52560.19
2023-02-24T03:49:25.457Z,52545.94
2023-02-24T03:52:21.672Z,52578.50
2023-02-24T03:55:11.799Z,52572.41
2023-02-24T03:58:15.272Z,52521.53
2023-02-24T04:01:07.754Z,52562.22
2023-02-24T04:04:07.554Z,52529.66
2023-02-24T04:06:42.853Z,52554.09
2023-02-24T04:09:29.310Z,52558.16
2023-02-24T04:12:04.932Z,52574.44
2023-02-24T04:14:46.372Z,52562.22
2023-02-24T04:17:54.363Z,52535.78
2023-02-24T04:20:24.932Z,52558.16
2023-02-24T04:22:57.055Z,52566.31
2023-02-24T04:25:26.520Z,52554.09
2023-02-24T04:27:55.871Z,52562.22
2023-02-24T04:30:26.922Z,52568.34
2023-02-24T04:32:53.641Z,52550.03
2023-02-24T04:35:23.026Z,52556.13
2023-02-24T04:37:50.628Z,52537.81
2023-02-24T04:40:22.231Z,52541.88
2023-02-24T04:42:51.942Z,52554.09
2023-02-24T04:45:24.785Z,52519.50
2023-02-24T04:47:56.205Z,52598.84
2023-02-24T04:50:25.308Z,52562.22
2023-02-24T04:52:57.710Z,52554.09
2023-02-24T04:55:29.188Z,52550.03
2023-02-24T04:57:56.902Z,52572.41
2023-02-24T05:00:26.498Z,52576.47
2023-02-24T05:02:56.084Z,52580.53
2023-02-24T05:05:25.686Z,52554.09
2023-02-24T05:08:03.574Z,52570.38
2023-02-24T05:10:35.919Z,52594.78
2023-02-24T05:13:02.707Z,52543.91
2023-02-24T05:15:33.436Z,52513.41
2023-02-24T05:18:08.802Z,52564.25
2023-02-24T05:21:13.270Z,52607.00
2023-02-24T05:23:45.336Z,52588.69
2023-02-24T05:26:16.373Z,52586.66
2023-02-24T05:28:46.975Z,52543.91
2023-02-24T05:31:16.124Z,52574.44
2023-02-24T05:33:44.842Z,52554.09
2023-02-24T05:36:17.170Z,52588.69
2023-02-24T05:38:48.280Z,52590.72
2023-02-24T05:41:17.684Z,52572.41
2023-02-24T05:43:52.563Z,52562.22
2023-02-24T05:46:28.297Z,52621.25
2023-02-24T05:49:00.278Z,52623.28
2023-02-24T05:51:35.318Z,52609.03
2023-02-24T05:54:07.506Z,52623.28
2023-02-24T05:56:36.775Z,52584.63
2023-02-24T05:59:06.538Z,52625.31
2023-02-24T06:01:41.433Z,52584.63
2023-02-24T06:04:09.403Z,52609.03
2023-02-24T06:06:41.093Z,52627.34
2023-02-24T06:09:12.994Z,52607.00
2023-02-24T06:11:41.158Z,52635.47
2023-02-24T06:14:09.106Z,52627.34
2023-02-24T06:16:37.662Z,52635.47
2023-02-24T06:19:05.257Z,52647.69
2023-02-24T06:21:32.054Z,52651.75
2023-02-24T06:23:59.548Z,52659.91
2023-02-24T06:26:29.861Z,52629.38
2023-02-24T06:28:59.885Z,52629.38
2023-02-24T06:31:27.541Z,52619.22
2023-02-24T06:33:54.392Z,52647.69
2023-02-24T06:36:21.767Z,52629.38
2023-02-24T06:38:49.654Z,52655.84
2023-02-24T06:41:16.484Z,52625.31
2023-02-24T06:43:45.268Z,52672.13
2023-02-24T06:46:15.371Z,52655.84
2023-02-24T06:48:42.632Z,52653.81
2023-02-24T06:51:13.686Z,52672.13
2023-02-24T06:53:43.194Z,52657.88
2023-02-24T06:56:15.329Z,52674.16
2023-02-24T06:58:47.158Z,52668.03
2023-02-24T07:01:25.623Z,52641.59
2023-02-24T07:04:17.654Z,52661.94
2023-02-24T07:06:52.018Z,52690.44
2023-02-24T07:09:21.979Z,52668.03
2023-02-24T07:11:52.472Z,52651.75
2023-02-24T07:14:27.711Z,52655.84
2023-02-24T07:16:55.039Z,52609.03
2023-02-24T07:19:25.615Z,52633.44
2023-02-24T07:21:59.985Z,52627.34
2023-02-24T07:24:39.244Z,52678.22
2023-02-24T07:27:09.448Z,52666.00
2023-02-24T07:29:37.708Z,52663.97
2023-02-24T07:32:08.614Z,52668.03
2023-02-24T07:34:39.914Z,52668.03
2023-02-24T07:37:08.343Z,52651.75
2023-02-24T07:39:39.716Z,52678.22
2023-02-24T07:42:08.952Z,52655.84
2023-02-24T07:44:35.575Z,52639.56
2023-02-24T07:47:07.823Z,52678.22
2023-02-24T07:49:35.243Z,52666.00
2023-02-24T07:52:02.016Z,52655.84
2023-02-24T07:54:30.253Z,52672.13
2023-02-24T07:56:59.146Z,52637.53
2023-02-24T07:59:30.470Z,52617.16
2023-02-24T08:01:57.539Z,52676.19
2023-02-24T08:04:28.587Z,52700.59
2023-02-24T08:06:56.413Z,52657.88
2023-02-24T08:09:44.925Z,52696.53
2023-02-24T08:12:21.629Z,52663.97
2023-02-24T08:14:51.590Z,52672.13
2023-02-24T08:17:20.078Z,52680.25
2023-02-24T08:19:48.867Z,52663.97
2023-02-24T08:22:19.802Z,52676.19
2023-02-24T08:24:50.205Z,52653.81
2023-02-24T08:27:20.603Z,52676.19
2023-02-24T08:30:01.391Z,52674.16
2023-02-24T08:32:38.467Z,52659.91
2023-02-24T08:35:14.527Z,52670.06
2023-02-24T08:37:49.166Z,52674.16
2023-02-24T08:40:34.360Z,52647.69
2023-02-24T08:43:25.675Z,52668.03
2023-02-24T08:46:00.890Z,52617.16
2023-02-24T08:48:37.403Z,52627.34
2023-02-24T08:51:11.813Z,52666.00
2023-02-24T08:53:42.108Z,52670.06
2023-02-24T08:56:11.603Z,52629.38
2023-02-24T08:58:49.425Z,52682.28
2023-02-24T09:01:19.764Z,52659.91
2023-02-24T09:03:48.349Z,52698.56
2023-02-24T09:06:25.470Z,52661.94
2023-02-24T09:09:13.626Z,52653.81
2023-02-24T09:11:44.200Z,52688.41
2023-02-24T09:14:25.902Z,52670.06
2023-02-24T09:17:02.124Z,52651.75
2023-02-24T09:19:47.918Z,52682.28
2023-02-24T09:22:32.072Z,52651.75
2023-02-24T09:25:40.367Z,52647.69
2023-02-24T09:28:17.398Z,52635.47
2023-02-24T09:30:53.809Z,52672.13
2023-02-24T09:33:24.827Z,52639.56
2023-02-24T09:35:53.118Z,52619.22
2023-02-24T09:38:43.500Z,52676.19
2023-02-24T09:41:30.138Z,52637.53
2023-02-24T09:44:18.367Z,52613.09
2023-02-24T09:47:42.633Z,52651.75
2023-02-24T09:50:46.912Z,52672.13
2023-02-24T09:53:17.216Z,52623.28
2023-02-24T09:56:03.897Z,52649.72
2023-02-24T09:58:43.651Z,52647.69
2023-02-24T10:01:43.024Z,52651.75
2023-02-24T10:04:21.162Z,52647.69
2023-02-24T10:06:50.688Z,52651.75
2023-02-24T10:09:38.108Z,52645.66
2023-02-24T10:12:20.035Z,52647.69
2023-02-24T10:14:52.970Z,52629.38
2023-02-24T10:17:23.285Z,52655.84
2023-02-24T10:20:13.996Z,52655.84
2023-02-24T10:22:57.906Z,52615.13
2023-02-24T10:25:40.436Z,52621.25
2023-02-24T10:28:22.028Z,52596.81
2023-02-24T10:31:25.449Z,52617.16
2023-02-24T10:33:57.050Z,52609.03
2023-02-24T10:36:35.202Z,52566.31
2023-02-24T10:39:15.596Z,52598.84
2023-02-24T10:41:45.911Z,52617.16
2023-02-24T10:44:20.028Z,52604.97
2023-02-24T10:46:46.756Z,52633.44
2023-02-24T10:49:16.625Z,52655.84
2023-02-24T10:51:51.276Z,52598.84
2023-02-24T10:54:54.978Z,52609.03
2023-02-24T10:57:38.248Z,52607.00
2023-02-24T11:00:35.214Z,52580.53
2023-02-24T11:03:08.399Z,52590.72
2023-02-24T11:05:59.332Z,52639.56
2023-02-24T11:08:54.699Z,52584.63
2023-02-24T11:11:29.977Z,52623.28
2023-02-24T11:14:21.152Z,52588.69
2023-02-24T11:17:13.123Z,52584.63
2023-02-24T11:19:50.331Z,52582.56
2023-02-24T11:22:21.951Z,52613.09
2023-02-24T11:24:50.336Z,52651.75
2023-02-24T11:27:21.042Z,52607.00
2023-02-24T11:30:14.948Z,52592.75
2023-02-24T11:32:59.268Z,52617.16
2023-02-24T11:35:33.575Z,52566.31
2023-02-24T11:38:27.858Z,52600.88
2023-02-24T11:41:05.356Z,52609.03
2023-02-24T11:43:36.142Z,52580.53
2023-02-24T11:46:12.471Z,52576.47
2023-02-24T11:48:47.647Z,52588.69
2023-02-24T11:51:20.104Z,52598.84
2023-02-24T11:54:01.505Z,52562.22
2023-02-24T11:56:33.853Z,52592.75
2023-02-24T11:59:39.736Z,52574.44
2023-02-24T12:02:38.642Z,52543.91
2023-02-24T12:05:22.239Z,52592.75
2023-02-24T12:07:52.841Z,52566.31
2023-02-24T12:10:24.656Z,52578.50
2023-02-24T12:13:11.462Z,52558.16
2023-02-24T12:15:48.724Z,52578.50
2023-02-24T12:18:24.362Z,52533.75
2023-02-24T12:21:15.316Z,52594.78
2023-02-24T12:23:44.906Z,52558.16
2023-02-24T12:26:24.077Z,52594.78
2023-02-24T12:29:16.184Z,52576.47
2023-02-24T12:32:10.931Z,52580.53
2023-02-24T12:35:14.151Z,52572.41
2023-02-24T12:38:09.845Z,52609.03
2023-02-24T12:41:06.256Z,52568.34
2023-02-24T12:43:41.075Z,52576.47
2023-02-24T12:46:19.900Z,52586.66
2023-02-24T12:49:01.773Z,52564.25
2023-02-24T12:51:28.180Z,52592.75
2023-02-24T12:54:11.683Z,52578.50
2023-02-24T12:57:00.039Z,52598.84
2023-02-24T12:59:32.132Z,52566.31
2023-02-24T13:02:01.268Z,52594.78
2023-02-24T13:04:54.941Z,52588.69
2023-02-24T13:07:39.676Z,52592.75
2023-02-24T13:10:16.977Z,52547.97
2023-02-24T13:12:50.894Z,52582.56
2023-02-24T13:15:26.276Z,52586.66
2023-02-24T13:17:58.033Z,52580.53
2023-02-24T13:20:36.902Z,52576.47
2023-02-24T13:23:18.538Z,52552.06
2023-02-24T13:25:52.021Z,52576.47
2023-02-24T13:28:31.160Z,52584.63
2023-02-24T13:31:00.398Z,52554.09
2023-02-24T13:33:43.070Z,52578.50
2023-02-24T13:36:22.170Z,52602.94
2023-02-24T13:38:50.007Z,52562.22
2023-02-24T13:41:24.918Z,52600.88
2023-02-24T13:44:02.991Z,52560.19
2023-02-24T13:47:04.944Z,52572.41
2023-02-24T13:49:39.883Z,52535.78
2023-02-24T13:52:36.200Z,52531.72
2023-02-24T13:55:20.852Z,52558.16
2023-02-24T13:57:53.740Z,52537.81
2023-02-24T14:00:42.256Z,52519.50
2023-02-24T14:03:20.501Z,52543.91
2023-02-24T14:05:48.190Z,52574.44
2023-02-24T14:08:35.780Z,52525.59
2023-02-24T14:11:03.960Z,52556.13
2023-02-24T14:13:34.388Z,52580.53
2023-02-24T14:16:06.530Z,52543.91
2023-02-24T14:18:33.099Z,52580.53
2023-02-24T14:20:59.614Z,52562.22
2023-02-24T14:23:28.842Z,52535.78
2023-02-24T14:26:18.458Z,52566.31
2023-02-24T14:28:52.402Z,52574.44
2023-02-24T14:31:23.276Z,52535.78
2023-02-24T14:33:57.297Z,52580.53
2023-02-24T14:36:28.800Z,52574.44
2023-02-24T14:39:20.485Z,52572.41
2023-02-24T14:41:47.800Z,52570.38
2023-02-24T14:44:26.043Z,52554.09
2023-02-24T14:46:55.223Z,52566.31
2023-02-24T14:49:25.508Z,52568.34
2023-02-24T14:52:08.853Z,52558.16
2023-02-24T14:54:56.199Z,52596.81
2023-02-24T14:57:27.176Z,52558.16
2023-02-24T15:00:06.966Z,52556.13
2023-02-24T15:02:34.190Z,52550.03
2023-02-24T15:05:00.885Z,52562.22
2023-02-24T15:07:32.106Z,52560.19
2023-02-24T15:10:00.377Z,52552.06
2023-02-24T15:12:33.543Z,52545.94
2023-02-24T15:15:06.641Z,52578.50
2023-02-24T15:17:37.993Z,52590.72
2023-02-24T15:20:24.377Z,52547.97
2023-02-24T15:22:51.909Z,52543.91
2023-02-24T15:25:37.226Z,52554.09
2023-02-24T15:28:07.556Z,52560.19
2023-02-24T15:30:39.821Z,52527.63
2023-02-24T15:33:38.176Z,52578.50
2023-02-24T15:36:20.710Z,52529.66
2023-02-24T15:38:52.878Z,52560.19
2023-02-24T15:41:19.497Z,52582.56
2023-02-24T15:43:52.923Z,52602.94
2023-02-24T15:46:19.773Z,52590.72
2023-02-24T15:48:49.033Z,52607.00
2023-02-24T15:51:32.437Z,52592.75
2023-02-24T15:54:01.338Z,52598.84
2023-02-24T15:56:28.946Z,52574.44
2023-02-24T15:58:55.387Z,52576.47
2023-02-24T16:01:21.977Z,52582.56
2023-02-24T16:03:49.613Z,52615.13
2023-02-24T16:06:22.508Z,52586.66
2023-02-24T16:08:50.616Z,52619.22
2023-02-24T16:11:22.733Z,52621.25
2023-02-24T16:13:56.506Z,52604.97
2023-02-24T16:16:24.992Z,52613.09
2023-02-24T16:18:52.146Z,52623.28
2023-02-24T16:21:19.071Z,52623.28
2023-02-24T16:23:45.710Z,52602.94
2023-02-24T16:26:18.860Z,52598.84
2023-02-24T16:28:56.581Z,52615.13
2023-02-24T16:31:24.627Z,52598.84
2023-02-24T16:33:55.340Z,52651.75
2023-02-24T16:36:25.322Z,52598.84
2023-02-24T16:38:52.338Z,52625.31
2023-02-24T16:41:18.970Z,52619.22
2023-02-24T16:43:45.460Z,52602.94
2023-02-24T16:46:18.440Z,52663.97
2023-02-24T16:48:47.542Z,52617.16
2023-02-24T16:51:14.938Z,52615.13
2023-02-24T16:53:42.099Z,52641.59
2023-02-24T16:56:09.256Z,52594.78
2023-02-24T16:58:36.086Z,52639.56
2023-02-24T17:01:05.307Z,52668.03
2023-02-24T17:03:44.828Z,52655.84
2023-02-24T17:06:11.777Z,52653.81
2023-02-24T17:08:38.760Z,52596.81
2023-02-24T17:11:05.360Z,52659.91
2023-02-24T17:13:31.882Z,52609.03
2023-02-24T17:15:58.573Z,52629.38
2023-02-24T17:18:26.019Z,52600.88
2023-02-24T17:20:53.396Z,52641.59
2023-02-24T17:23:20.641Z,52684.31
2023-02-24T17:25:52.004Z,52621.25
2023-02-24T17:28:18.531Z,52602.94
2023-02-24T17:30:45.122Z,52613.09
2023-02-24T17:33:14.228Z,52643.63
2023-02-24T17:35:41.916Z,52647.69
2023-02-24T17:38:15.967Z,52617.16
2023-02-24T17:40:43.634Z,52643.63
2023-02-24T17:43:10.470Z,52657.88
2023-02-24T17:45:42.685Z,52670.06
2023-02-24T17:48:09.544Z,52639.56
2023-02-24T17:50:36.156Z,52633.44
2023-02-24T17:53:02.854Z,52651.75
2023-02-24T17:55:29.431Z,52674.16
2023-02-24T17:57:57.250Z,52647.69
2023-02-24T18:00:23.906Z,52621.25
2023-02-24T18:02:50.490Z,52655.84
2023-02-24T18:05:17.082Z,52678.22
2023-02-24T18:07:43.519Z,52653.81
2023-02-24T18:10:11.027Z,52661.94
2023-02-24T18:12:38.523Z,52661.94
2023-02-24T18:15:09.122Z,52659.91
2023-02-24T18:17:37.415Z,52678.22
2023-02-24T18:20:05.542Z,52672.13
2023-02-24T18:22:32.054Z,52696.53
2023-02-24T18:24:59.361Z,52661.94
2023-02-24T18:27:25.919Z,52678.22
2023-02-24T18:29:53.347Z,52676.19
2023-02-24T18:32:20.295Z,52663.97
2023-02-24T18:34:46.876Z,52670.06
2023-02-24T18:37:13.327Z,52663.97
2023-02-24T18:39:39.767Z,52661.94
2023-02-24T18:42:06.217Z,52676.19
2023-02-24T18:44:32.728Z,52688.41
2023-02-24T18:46:59.224Z,52657.88
2023-02-24T18:49:25.829Z,52676.19
2023-02-24T18:51:52.374Z,52686.34
2023-02-24T18:54:20.182Z,52647.69
2023-02-24T18:56:46.733Z,52688.41
2023-02-24T18:59:13.236Z,52663.97
2023-02-24T19:01:40.244Z,52690.44
2023-02-24T19:04:07.691Z,52684.31
2023-02-24T19:06:34.990Z,52682.28
2023-02-24T19:09:07.230Z,52668.03
2023-02-24T19:11:34.288Z,52710.78
2023-02-24T19:14:01.349Z,52708.75
2023-02-24T19:16:28.468Z,52712.81
2023-02-24T19:18:56.774Z,52692.47
2023-02-24T19:21:24.701Z,52686.34
2023-02-24T19:23:51.662Z,52733.16
2023-02-24T19:26:24.113Z,52682.28
2023-02-24T19:28:51.548Z,52702.63
2023-02-24T19:31:23.870Z,52682.28
2023-02-24T19:34:01.803Z,52692.47
2023-02-24T19:36:30.575Z,52643.63
2023-02-24T19:38:57.023Z,52718.91
2023-02-24T19:41:24.108Z,52680.25
2023-02-24T19:43:50.595Z,52670.06
2023-02-24T19:46:17.527Z,52712.81
2023-02-24T19:48:43.978Z,52708.75
2023-02-24T19:51:16.655Z,52700.59
2023-02-24T19:53:43.624Z,52731.13
2023-02-24T19:56:10.339Z,52714.84
2023-02-24T19:58:37.055Z,52692.47
2023-02-24T20:01:09.401Z,52714.84
2023-02-24T20:03:37.134Z,52666.00
2023-02-24T20:06:04.228Z,52710.78
2023-02-24T20:08:30.635Z,52714.84
2023-02-24T20:11:01.481Z,52718.91
2023-02-24T20:13:29.131Z,52698.56
2023-02-24T20:16:08.988Z,52702.63
2023-02-24T20:18:35.495Z,52708.75
2023-02-24T20:21:01.977Z,52688.41
2023-02-24T20:23:29.300Z,52688.41
2023-02-24T20:25:56.815Z,52714.84
2023-02-24T20:28:23.828Z,52674.16
2023-02-24T20:30:51.230Z,52727.06
2023-02-24T20:33:18.450Z,52712.81
2023-02-24T20:35:44.916Z,52672.13
2023-02-24T20:38:12.200Z,52704.66
2023-02-24T20:40:39.434Z,52692.47
2023-02-24T20:43:08.026Z,52733.16
2023-02-24T20:45:36.330Z,52686.34
2023-02-24T20:48:03.528Z,52674.16
2023-02-24T20:50:30.603Z,52661.94
2023-02-24T20:52:57.026Z,52678.22
2023-02-24T20:55:23.492Z,52682.28
2023-02-24T20:57:50.255Z,52668.03
2023-02-24T21:00:17.287Z,52723.00
2023-02-24T21:02:44.108Z,52692.47
2023-02-24T21:05:19.201Z,52639.56
2023-02-24T21:07:45.897Z,52690.44
2023-02-24T21:10:12.596Z,52670.06
2023-02-24T21:12:39.025Z,52678.22
2023-02-24T21:15:06.399Z,52653.81
2023-02-24T21:17:34.373Z,52657.88
2023-02-24T21:20:01.699Z,52657.88
2023-02-24T21:22:31.388Z,52655.84
2023-02-24T21:24:58.673Z,52670.06
2023-02-24T21:27:26.025Z,52700.59
2023-02-24T21:29:53.440Z,52676.19
2023-02-24T21:32:20.000Z,52694.50
2023-02-24T21:34:46.723Z,52649.72
2023-02-24T21:37:13.214Z,52708.75
2023-02-24T21:39:39.677Z,52678.22
2023-02-24T21:42:07.445Z,52668.03
2023-02-24T21:44:33.879Z,52702.63
2023-02-24T21:47:00.345Z,52668.03
2023-02-24T21:49:26.857Z,52659.91
2023-02-24T21:51:55.185Z,52678.22
2023-02-24T21:54:22.029Z,52678.22
2023-02-24T21:56:48.624Z,52674.16
2023-02-24T21:59:15.136Z,52698.56
2023-02-24T22:01:44.713Z,52663.97
2023-02-24T22:04:17.960Z,52672.13
2023-02-24T22:06:44.898Z,52659.91
2023-02-24T22:09:14.616Z,52629.38
2023-02-24T22:11:41.602Z,52663.97
2023-02-24T22:14:08.852Z,52655.84
2023-02-24T22:16:35.673Z,52688.41
2023-02-24T22:19:03.184Z,52666.00
2023-02-24T22:21:30.989Z,52692.47
2023-02-24T22:24:00.370Z,52682.28
2023-02-24T22:26:28.864Z,52645.66
2023-02-24T22:28:56.345Z,52651.75
2023-02-24T22:31:27.520Z,52684.31
2023-02-24T22:33:54.144Z,52653.81
2023-02-24T22:36:25.161Z,52647.69
2023-02-24T22:38:52.676Z,52674.16
2023-02-24T22:41:22.146Z,52649.72
2023-02-24T22:43:48.820Z,52680.25
2023-02-24T22:46:18.885Z,52686.34
2023-02-24T22:48:45.414Z,52659.91
2023-02-24T22:51:13.291Z,52678.22
2023-02-24T22:53:42.386Z,52661.94
2023-02-24T22:56:11.862Z,52688.41
2023-02-24T22:58:38.692Z,52696.53
2023-02-24T23:01:18.426Z,52684.31
2023-02-24T23:03:46.162Z,52684.31
2023-02-24T23:06:21.944Z,52670.06
2023-02-24T23:08:50.807Z,52657.88
2023-02-24T23:11:24.716Z,52686.34
2023-02-24T23:13:51.906Z,52668.03
2023-02-24T23:16:25.215Z,52682.28
2023-02-24T23:18:54.181Z,52720.94
2023-02-24T23:21:24.912Z,52706.72
2023-02-24T23:23:56.833Z,52712.81
2023-02-24T23:26:39.177Z,52674.16
2023-02-24T23:29:06.316Z,52712.81
2023-02-24T23:31:33.293Z,52688.41
2023-02-24T23:33:59.792Z,52718.91
2023-02-24T23:36:26.447Z,52688.41
2023-02-24T23:38:53.141Z,52645.66
2023-02-24T23:41:19.634Z,52645.66
2023-02-24T23:43:46.245Z,52659.91
2023-02-24T23:46:13.563Z,52647.69
2023-02-24T23:48:40.679Z,52710.78
2023-02-24T23:51:09.142Z,52674.16
2023-02-24T23:53:40.123Z,52676.19
2023-02-24T23:56:31.686Z,52684.31
2023-02-24T23:58:59.321Z,52737.22
